createdAt,value
2023-04-04T00:03:42.210Z,178.30
2023-04-04T00:13:46.472Z,172.70
2023-04-04T00:23:54.611Z,176.83
2023-04-04T00:34:00.223Z,177.17
2023-04-04T00:44:05.465Z,178.50
2023-04-04T00:54:09.128Z,176.13
2023-04-04T01:04:15.708Z,169.93
2023-04-04T01:14:19.484Z,175.70
2023-04-04T01:24:27.852Z,179.80
2023-04-04T01:34:50.744Z,173.70
2023-04-04T01:44:57.278Z,176.30
2023-04-04T01:55:08.757Z,173.60
2023-04-04T02:05:12.769Z,174.73
2023-04-04T02:15:19.460Z,172.63
2023-04-04T02:25:24.704Z,177.10
2023-04-04T02:35:30.036Z,175.57
2023-04-04T02:45:33.786Z,177.53
2023-04-04T02:55:57.716Z,184.83
2023-04-04T03:06:01.577Z,177.77
2023-04-04T03:16:07.849Z,191.27
2023-04-04T03:26:21.314Z,187.90
2023-04-04T03:36:26.512Z,176.83
2023-04-04T03:46:30.437Z,179.37
2023-04-04T03:56:38.039Z,177.90
2023-04-04T04:06:44.017Z,172.70
2023-04-04T04:16:49.228Z,173.83
2023-04-04T04:26:57.869Z,173.87
2023-04-04T04:37:03.435Z,176.97
2023-04-04T04:47:14.191Z,175.47
2023-04-04T04:57:20.005Z,176.80
2023-04-04T05:07:24.389Z,180.30
2023-04-04T05:17:30.999Z,175.50
2023-04-04T05:27:41.090Z,174.97
2023-04-04T05:37:46.210Z,177.00
2023-04-04T05:47:53.288Z,182.17
2023-04-04T05:58:01.482Z,177.87
2023-04-04T06:08:19.310Z,178.50
2023-04-04T06:18:24.552Z,177.50
2023-04-04T06:28:28.737Z,182.37
2023-04-04T06:38:34.249Z,185.17
2023-04-04T06:48:42.612Z,187.97
2023-04-04T06:58:47.952Z,186.60
2023-04-04T07:08:52.061Z,190.97
2023-04-04T07:18:58.227Z,199.10
2023-04-04T07:29:01.854Z,202.07
2023-04-04T07:39:07.239Z,208.47
2023-04-04T07:49:11.281Z,209.23
2023-04-04T07:59:16.505Z,209.27
2023-04-04T08:09:20.282Z,208.00
2023-04-04T08:19:25.403Z,214.17
2023-04-04T08:29:29.122Z,209.90
2023-04-04T08:39:34.265Z,211.83
2023-04-04T08:49:41.168Z,210.60
2023-04-04T08:59:46.353Z,209.13
2023-04-04T09:09:52.190Z,221.00
2023-04-04T09:19:57.226Z,213.83
2023-04-04T09:30:05.844Z,219.47
2023-04-04T09:40:12.042Z,209.33
2023-04-04T09:50:23.697Z,205.70
2023-04-04T10:00:32.162Z,210.10
2023-04-04T10:10:55.753Z,204.87
2023-04-04T10:31:22.751Z,205.63
2023-04-04T10:41:32.452Z,201.73
2023-04-04T10:51:45.148Z,207.20
2023-04-04T11:01:58.852Z,202.87
2023-04-04T11:12:20.123Z,201.43
2023-04-04T11:22:26.054Z,201.50
2023-04-04T11:32:52.870Z,201.67
2023-04-04T11:43:04.399Z,208.87
2023-04-04T11:53:10.009Z,211.23
2023-04-04T12:03:18.725Z,203.33
2023-04-04T12:13:22.669Z,204.20
2023-04-04T12:23:27.854Z,206.17
2023-04-04T12:33:33.827Z,203.03
2023-04-04T12:43:43.632Z,206.73
2023-04-04T12:53:56.706Z,208.20
2023-04-04T13:04:05.261Z,206.43
2023-04-04T13:14:09.469Z,202.67
2023-04-04T13:24:17.146Z,199.13
2023-04-04T13:34:23.071Z,205.33
2023-04-04T13:44:28.398Z,200.00
2023-04-04T13:54:32.442Z,201.07
2023-04-04T14:04:37.507Z,201.07
2023-04-04T14:14:41.492Z,197.17
2023-04-04T14:24:46.731Z,199.50
2023-04-04T14:34:50.446Z,197.03
2023-04-04T14:44:55.381Z,199.80
2023-04-04T14:54:59.259Z,194.27
2023-04-04T15:05:04.198Z,195.07
2023-04-04T15:15:09.539Z,190.13
2023-04-04T15:25:14.433Z,192.13
2023-04-04T15:35:22.234Z,197.23
2023-04-04T15:45:27.434Z,194.60
2023-04-04T15:55:31.167Z,185.20
2023-04-04T16:05:36.159Z,196.87
2023-04-04T16:15:40.161Z,194.33
2023-04-04T16:25:45.447Z,187.60
2023-04-04T16:35:49.663Z,189.50
2023-04-04T16:45:54.928Z,191.80
2023-04-04T16:55:58.631Z,187.43
2023-04-04T17:06:03.586Z,182.73
2023-04-04T17:16:08.352Z,191.77
2023-04-04T17:26:13.578Z,195.27
2023-04-04T17:36:17.155Z,187.00
2023-04-04T17:46:22.343Z,185.73
2023-04-04T17:56:27.192Z,177.97
2023-04-04T18:06:32.247Z,177.37
2023-04-04T18:16:40.283Z,176.97
2023-04-04T18:26:48.566Z,181.50
2023-04-04T18:36:52.414Z,174.90
2023-04-04T18:46:58.758Z,177.90
2023-04-04T18:57:02.486Z,182.37
2023-04-04T19:07:08.487Z,188.77
2023-04-04T19:17:15.533Z,187.43
2023-04-04T19:27:20.857Z,173.97
2023-04-04T19:37:24.450Z,184.77
2023-04-04T19:47:29.429Z,177.53
2023-04-04T19:57:34.224Z,191.33
2023-04-04T20:07:39.297Z,187.40
2023-04-04T20:17:43.951Z,181.33
2023-04-04T20:27:49.060Z,187.23
2023-04-04T20:37:52.584Z,190.33
2023-04-04T20:47:58.334Z,194.90
2023-04-04T20:58:10.175Z,183.80
2023-04-04T21:08:44.315Z,185.67
2023-04-04T21:18:47.976Z,186.40
2023-04-04T21:28:53.105Z,177.10
2023-04-04T21:38:58.498Z,180.70
2023-04-04T21:49:04.027Z,179.73
2023-04-04T21:59:10.203Z,183.60
2023-04-04T22:09:16.154Z,182.03
2023-04-04T22:19:23.592Z,180.57
2023-04-04T22:29:28.661Z,175.53
2023-04-04T22:39:33.201Z,174.33
2023-04-04T22:49:38.303Z,177.70
2023-04-04T22:59:42.058Z,179.57
2023-04-04T23:09:47.078Z,172.73
2023-04-04T23:19:50.697Z,177.80
2023-04-04T23:30:00.422Z,179.23
2023-04-04T23:40:07.151Z,178.90
2023-04-04T23:50:12.796Z,181.10
